Fairhope, AL

4:10 AM CDT on August 30, 2016 (GMT -0500)
Fairhope

Weather History for KCQF - February, 2013

Change the Weather History Date:

Friday, February 1, 2013

  Actual Average (KBFM) Record (KBFM)
Temperature  
Mean Temperature 50 °F -  
Max Temperature 60 °F 58 °F 70 °F (1997)
Min Temperature 39 °F 41 °F 35 °F (2000)
Degree Days  
Heating Degree Days 16    
Moisture  
Dew Point 35 °F    
Average Humidity 54    
Maximum Humidity 76    
Minimum Humidity 34    
Precipitation  
Precipitation 0.00 in - - ()
Sea Level Pressure  
Sea Level Pressure 30.35 in    
Wind  
Wind Speed 7 mph (NNW)    
Max Wind Speed 12 mph    
Max Gust Speed 16 mph    
Visibility 9 miles    
Events      
Averages and records for this station are not official NWS values.
T = Trace of Precipitation, MM = Missing Value Source: NWS Daily Summary

Daily Weather History Graph

Daily Weather History Graph

Search for Another Location

Airport or City:

Trip Planner

Search our weather history database for the weather conditions in past years. The results will help you decide how hot, cold, wet, or windy it might be!

Date:

Astronomy

Feb. 01, 2013 Rise Set
Actual Time 6:42 AM CST 5:28 PM CST
Civil Twilight 6:17 AM CST 5:53 PM CST
Nautical Twilight 5:48 AM CST 6:22 PM CST
Astronomical Twilight 5:20 AM CST 6:50 PM CST
Moon 11:04 PM CST (2/1) 9:43 AM CST (2/1)
Length of Visible Light 11h 36m
Length of Day
10h 45m
Waning Gibbous, 70% of the Moon is Illuminated
Feb 1
Waning Gibbous
Feb 3
Last Quarter
Feb 10
New
Feb 17
First Quarter
Feb 25
Full

Hourly Weather History & Observations

Time (CST) Temp. Windchill Dew Point Humidity Pressure Visibility Wind Dir Wind Speed Gust Speed Precip Events Conditions
12:15 AM 53.6 °F - 41.0 °F 62% 30.32 in 10.0 mi West 9.2 mph - N/A   Clear
12:35 AM 53.6 °F - 41.0 °F 62% 30.32 in 10.0 mi West 6.9 mph - N/A   Clear
12:55 AM 51.8 °F - 41.0 °F 67% 30.33 in 10.0 mi West 6.9 mph - N/A   Clear
1:15 AM 51.8 °F - 41.0 °F 67% 30.33 in 10.0 mi West 8.1 mph - N/A   Clear
1:35 AM 51.8 °F - 39.2 °F 62% 30.33 in 10.0 mi West 8.1 mph - N/A   Clear
1:55 AM 51.8 °F - 37.4 °F 58% 30.34 in 10.0 mi West 5.8 mph - N/A   Clear
2:15 AM 50.0 °F - 37.4 °F 62% 30.33 in 10.0 mi West 5.8 mph - N/A   Clear
2:35 AM 50.0 °F - 37.4 °F 62% 30.33 in 10.0 mi West 6.9 mph - N/A   Clear
2:55 AM 50.0 °F - 37.4 °F 62% 30.33 in 10.0 mi West 8.1 mph - N/A   Clear
3:15 AM 51.8 °F - 35.6 °F 54% 30.34 in 10.0 mi WNW 8.1 mph - N/A   Clear
3:35 AM 50.0 °F - 35.6 °F 58% 30.32 in 10.0 mi WNW 8.1 mph - N/A   Clear
3:55 AM 50.0 °F - 33.8 °F 54% 30.31 in 10.0 mi WNW 6.9 mph - N/A   Clear
4:15 AM 50.0 °F - 33.8 °F 54% 30.31 in 10.0 mi West 4.6 mph - N/A   Clear
4:35 AM 50.0 °F - 33.8 °F 54% 30.31 in 10.0 mi West 4.6 mph - N/A   Clear
4:55 AM 50.0 °F - 33.8 °F 54% 30.32 in 7.0 mi West 4.6 mph - N/A   Clear
5:15 AM 50.0 °F - 33.8 °F 54% 30.33 in 10.0 mi West 3.5 mph - N/A   Clear
5:35 AM 50.0 °F - 35.6 °F 58% 30.34 in 10.0 mi WNW 3.5 mph - N/A   Clear
5:55 AM 50.0 °F - 35.6 °F 58% 30.35 in 10.0 mi Calm Calm - N/A   Clear
6:15 AM 48.2 °F - 35.6 °F 62% 30.35 in 10.0 mi WNW 3.5 mph - N/A   Clear
6:35 AM 48.2 °F - 35.6 °F 62% 30.37 in 10.0 mi West 4.6 mph - N/A   Clear
6:55 AM 50.0 °F - 33.8 °F 54% 30.37 in 10.0 mi WNW 4.6 mph - N/A   Clear
7:15 AM 50.0 °F - 35.6 °F 58% 30.38 in 10.0 mi WNW 5.8 mph - N/A   Clear
7:35 AM 50.0 °F - 35.6 °F 58% 30.39 in 10.0 mi NW 4.6 mph - N/A   Clear
7:55 AM 50.0 °F - 35.6 °F 58% 30.39 in 10.0 mi NW 6.9 mph - N/A   Clear
8:15 AM 50.0 °F - 33.8 °F 54% 30.39 in 10.0 mi NNW 6.9 mph - N/A   Clear
8:35 AM 51.8 °F - 35.6 °F 54% 30.39 in 10.0 mi NNW 5.8 mph - N/A   Clear
8:55 AM 51.8 °F - 35.6 °F 54% 30.40 in 10.0 mi North 4.6 mph - N/A   Clear
9:15 AM 51.8 °F - 35.6 °F 54% 30.40 in 10.0 mi NNW 6.9 mph - N/A   Clear
9:35 AM 51.8 °F - 33.8 °F 50% 30.40 in 10.0 mi NNW 6.9 mph - N/A   Clear
9:55 AM 51.8 °F - 33.8 °F 50% 30.40 in 10.0 mi North 9.2 mph - N/A   Clear
10:15 AM 51.8 °F - 33.8 °F 50% 30.40 in 10.0 mi North 9.2 mph - N/A   Clear
10:35 AM 51.8 °F - 35.6 °F 54% 30.40 in 10.0 mi North 8.1 mph - N/A   Clear
10:55 AM 53.6 °F - 35.6 °F 51% 30.40 in 7.0 mi North 8.1 mph 16.1 mph N/A   Clear
11:15 AM 53.6 °F - 35.6 °F 51% 30.40 in 10.0 mi North 8.1 mph - N/A   Clear
11:35 AM 57.2 °F - 35.6 °F 44% 30.38 in 10.0 mi North 10.4 mph - N/A   Clear
11:55 AM 59.0 °F - 35.6 °F 42% 30.38 in 10.0 mi North 9.2 mph - N/A   Clear
12:15 PM 59.0 °F - 33.8 °F 39% 30.37 in 10.0 mi North 9.2 mph - N/A   Clear
12:35 PM 59.0 °F - 33.8 °F 39% 30.36 in 7.0 mi North 9.2 mph - N/A   Clear
12:55 PM 60.8 °F - 35.6 °F 39% 30.36 in 7.0 mi NNE 11.5 mph - N/A   Clear
1:15 PM 60.8 °F - 37.4 °F 42% 30.35 in 7.0 mi NW 8.1 mph - N/A   Clear
1:35 PM 60.8 °F - 37.4 °F 42% 30.35 in 10.0 mi NW 9.2 mph - N/A   Clear
1:55 PM 60.8 °F - 35.6 °F 39% 30.35 in 7.0 mi NW 10.4 mph - N/A   Clear
2:15 PM 60.8 °F - 35.6 °F 39% 30.34 in 10.0 mi NW 9.2 mph - N/A   Clear
2:35 PM 60.8 °F - 37.4 °F 42% 30.33 in 7.0 mi NW 9.2 mph - N/A   Clear
2:55 PM 60.8 °F - 35.6 °F 39% 30.33 in 10.0 mi NW 8.1 mph - N/A   Clear
3:15 PM 60.8 °F - 33.8 °F 36% 30.33 in 7.0 mi NW 9.2 mph - N/A   Clear
3:35 PM 60.8 °F - 33.8 °F 36% 30.33 in 10.0 mi NW 9.2 mph - N/A   Clear
3:55 PM 60.8 °F - 33.8 °F 36% 30.33 in 7.0 mi NW 6.9 mph - N/A   Clear
4:15 PM 60.8 °F - 32.0 °F 34% 30.33 in 10.0 mi NW 8.1 mph - N/A   Clear
4:35 PM 60.8 °F - 32.0 °F 34% 30.33 in 7.0 mi NNW 4.6 mph - N/A   Clear
4:55 PM 60.8 °F - 32.0 °F 34% 30.33 in 7.0 mi North 6.9 mph - N/A   Clear
5:15 PM 59.0 °F - 30.2 °F 34% 30.33 in 7.0 mi North 6.9 mph - N/A   Clear
5:35 PM 57.2 °F - 30.2 °F 36% 30.33 in 10.0 mi North 5.8 mph - N/A   Clear
5:55 PM 51.8 °F - 32.0 °F 47% 30.33 in 10.0 mi NNE 5.8 mph - N/A   Clear
6:15 PM 51.8 °F - 32.0 °F 47% 30.34 in 7.0 mi Calm Calm - N/A   Clear
6:35 PM 46.4 °F - 33.8 °F 62% 30.34 in 10.0 mi Calm Calm - N/A   Clear
6:55 PM 44.6 °F - 33.8 °F 66% 30.34 in 10.0 mi Calm Calm - N/A   Clear
7:15 PM 41.0 °F - 33.8 °F 76% 30.34 in 10.0 mi Calm Calm - N/A   Clear
7:35 PM 42.8 °F - 33.8 °F 70% 30.35 in 10.0 mi Calm Calm - N/A   Clear
8:15 PM 41.0 °F 39.0 °F 33.8 °F 76% 30.35 in 10.0 mi NE 3.5 mph - N/A   Clear
8:35 PM 42.8 °F 41.1 °F 32.0 °F 66% 30.36 in 10.0 mi NNE 3.5 mph - N/A   Clear
8:55 PM 42.8 °F 40.1 °F 32.0 °F 66% 30.36 in 10.0 mi NNE 4.6 mph - N/A   Clear
9:15 PM 42.8 °F 41.1 °F 32.0 °F 66% 30.36 in 7.0 mi NE 3.5 mph - N/A   Clear
9:35 PM 42.8 °F - 32.0 °F 66% 30.37 in 7.0 mi Calm Calm - N/A   Clear
10:15 PM 41.0 °F 38.0 °F 30.2 °F 65% 30.36 in 7.0 mi NNE 4.6 mph - N/A   Clear
10:35 PM 41.0 °F 39.0 °F 30.2 °F 65% 30.36 in 7.0 mi NE 3.5 mph - N/A   Clear
10:55 PM 39.2 °F 35.9 °F 30.2 °F 70% 30.36 in 7.0 mi ENE 4.6 mph - N/A   Clear
11:15 PM 39.2 °F 35.9 °F 30.2 °F 70% 30.36 in 10.0 mi NNE 4.6 mph - N/A   Clear
11:35 PM 39.2 °F 35.9 °F 30.2 °F 70% 30.36 in 10.0 mi NNE 4.6 mph - N/A   Clear
11:55 PM 39.2 °F 35.9 °F 30.2 °F 70% 30.36 in 10.0 mi NNE 4.6 mph - N/A   Clear